createdAt,value
2024-03-06T00:02:28.113Z,14.00
2024-03-06T00:04:56.442Z,15.00
2024-03-06T00:07:24.581Z,18.00
2024-03-06T00:09:52.846Z,16.00
2024-03-06T00:12:21.023Z,15.50
2024-03-06T00:14:49.254Z,15.33
2024-03-06T00:17:17.838Z,15.67
2024-03-06T00:19:46.219Z,10.25
2024-03-06T00:22:14.759Z,13.50
2024-03-06T00:24:42.865Z,13.00
2024-03-06T00:27:11.646Z,15.00
2024-03-06T00:29:39.895Z,14.67
2024-03-06T00:32:08.761Z,14.67
2024-03-06T00:34:37.064Z,14.00
2024-03-06T00:37:05.659Z,15.00
2024-03-06T00:39:33.884Z,16.50
2024-03-06T00:42:02.168Z,15.00
2024-03-06T00:44:30.316Z,15.00
2024-03-06T00:46:58.533Z,12.00
2024-03-06T00:49:27.197Z,16.00
2024-03-06T00:51:55.566Z,16.75
2024-03-06T00:54:23.795Z,14.00
2024-03-06T00:56:52.095Z,14.25
2024-03-06T00:59:20.356Z,14.00
2024-03-06T01:01:48.581Z,14.00
2024-03-06T01:04:17.418Z,14.00
2024-03-06T01:06:47.268Z,14.00
2024-03-06T01:09:15.507Z,14.25
2024-03-06T01:11:43.624Z,16.00
2024-03-06T01:14:11.814Z,16.67
2024-03-06T01:16:40.101Z,15.00
2024-03-06T01:19:08.268Z,12.00
2024-03-06T01:21:36.601Z,14.00
2024-03-06T01:24:04.891Z,16.00
2024-03-06T01:26:33.115Z,15.25
2024-03-06T01:29:01.514Z,16.00
2024-03-06T01:31:29.787Z,14.00
2024-03-06T01:33:58.015Z,14.00
2024-03-06T01:36:26.132Z,16.00
2024-03-06T01:38:54.331Z,14.00
2024-03-06T01:41:23.110Z,14.00
2024-03-06T01:43:51.473Z,14.75
2024-03-06T01:46:19.712Z,15.00
2024-03-06T01:48:47.966Z,14.00
2024-03-06T01:51:16.229Z,13.00
2024-03-06T01:53:44.376Z,13.50
2024-03-06T01:56:16.032Z,15.00
2024-03-06T01:58:44.427Z,14.50
2024-03-06T02:01:12.747Z,13.00
2024-03-06T02:03:40.919Z,13.00
2024-03-06T02:06:09.144Z,14.00
2024-03-06T02:08:37.846Z,15.00
2024-03-06T02:11:08.369Z,14.00
2024-03-06T02:13:36.776Z,14.00
2024-03-06T02:16:05.290Z,13.33
2024-03-06T02:18:33.547Z,15.00
2024-03-06T02:21:02.181Z,14.25
2024-03-06T02:23:30.446Z,14.00
2024-03-06T02:25:58.889Z,13.25
2024-03-06T02:28:27.121Z,14.25
2024-03-06T02:30:55.417Z,16.50
2024-03-06T02:33:23.649Z,14.67
2024-03-06T02:35:51.934Z,15.00
2024-03-06T02:38:20.166Z,13.33
2024-03-06T02:40:49.325Z,13.00
2024-03-06T02:43:17.994Z,14.00
2024-03-06T02:45:46.250Z,13.50
2024-03-06T02:48:14.545Z,14.00
2024-03-06T02:50:42.762Z,13.50
2024-03-06T02:53:11.112Z,13.00
2024-03-06T02:55:39.521Z,13.67
2024-03-06T02:58:07.985Z,15.00
2024-03-06T03:00:36.172Z,14.00
2024-03-06T03:03:04.509Z,15.00
2024-03-06T03:05:34.544Z,13.25
2024-03-06T03:08:04.950Z,14.00
2024-03-06T03:10:33.096Z,13.00
2024-03-06T03:13:01.437Z,15.00
2024-03-06T03:15:29.677Z,14.00
2024-03-06T03:17:57.997Z,16.50
2024-03-06T03:20:26.810Z,12.25
2024-03-06T03:22:55.138Z,14.00
2024-03-06T03:25:23.240Z,16.00
2024-03-06T03:27:51.442Z,13.50
2024-03-06T03:30:22.800Z,12.00
2024-03-06T03:32:51.124Z,14.33
2024-03-06T03:35:22.160Z,13.00
2024-03-06T03:37:53.015Z,13.50
2024-03-06T03:40:21.280Z,14.33
2024-03-06T03:42:50.402Z,14.00
2024-03-06T03:45:19.244Z,13.33
2024-03-06T03:47:47.702Z,12.67
2024-03-06T03:50:16.216Z,14.33
2024-03-06T03:52:45.221Z,14.00
2024-03-06T03:55:13.587Z,13.00
2024-03-06T03:57:41.806Z,14.50
2024-03-06T04:00:12.599Z,11.25
2024-03-06T04:02:41.241Z,13.00
2024-03-06T04:05:10.509Z,15.00
2024-03-06T04:07:38.878Z,14.50
2024-03-06T04:10:07.764Z,12.33
2024-03-06T04:12:36.061Z,12.00
2024-03-06T04:15:05.211Z,13.00
2024-03-06T04:17:33.444Z,12.00
2024-03-06T04:20:01.800Z,14.00
2024-03-06T04:22:30.389Z,13.00
2024-03-06T04:25:00.018Z,13.00
2024-03-06T04:27:28.318Z,15.00
2024-03-06T04:29:56.509Z,13.00
2024-03-06T04:32:24.854Z,12.00
2024-03-06T04:34:54.506Z,13.25
2024-03-06T04:37:22.896Z,13.00
2024-03-06T04:39:51.114Z,13.50
2024-03-06T04:42:19.563Z,14.50
2024-03-06T04:44:47.774Z,15.67
2024-03-06T04:47:15.979Z,14.50
2024-03-06T04:49:44.275Z,11.00
2024-03-06T04:52:12.632Z,12.50
2024-03-06T04:54:40.917Z,13.00
2024-03-06T04:57:09.289Z,15.00
2024-03-06T04:59:37.507Z,12.00
2024-03-06T05:02:05.788Z,10.00
2024-03-06T05:59:56.055Z,13.00
2024-03-06T06:02:24.624Z,14.33
2024-03-06T06:05:03.933Z,13.00
2024-03-06T06:07:40.399Z,14.50
2024-03-06T06:10:11.241Z,13.50
2024-03-06T06:12:39.447Z,15.00
2024-03-06T06:15:08.719Z,15.25
2024-03-06T06:17:38.685Z,15.00
2024-03-06T06:20:15.059Z,15.00
2024-03-06T06:22:43.476Z,9.50
2024-03-06T06:25:12.006Z,15.00
2024-03-06T06:27:40.371Z,14.00
2024-03-06T06:30:13.372Z,14.33
2024-03-06T06:32:43.493Z,13.50
2024-03-06T06:35:14.385Z,13.00
2024-03-06T06:37:43.079Z,15.00
2024-03-06T06:40:13.037Z,15.00
2024-03-06T06:42:51.171Z,15.00
2024-03-06T06:45:20.184Z,14.00
2024-03-06T06:47:49.087Z,13.00
2024-03-06T06:50:18.134Z,15.50
2024-03-06T06:52:46.429Z,14.25
2024-03-06T06:55:15.614Z,12.00
2024-03-06T06:57:44.011Z,14.00
2024-03-06T07:00:13.474Z,13.00
2024-03-06T07:02:44.786Z,13.75
2024-03-06T07:05:13.204Z,12.00
2024-03-06T07:07:41.878Z,14.00
2024-03-06T07:10:10.637Z,13.50
2024-03-06T07:12:39.055Z,13.50
2024-03-06T07:15:08.132Z,16.67
2024-03-06T07:17:36.826Z,14.25
2024-03-06T07:20:07.589Z,15.00
2024-03-06T07:22:35.996Z,18.33
2024-03-06T07:25:05.030Z,18.00
2024-03-06T07:27:33.327Z,15.50
2024-03-06T07:30:01.538Z,15.50
2024-03-06T07:32:30.101Z,18.00
2024-03-06T07:34:59.867Z,18.00
2024-03-06T07:37:28.148Z,19.00
2024-03-06T07:39:56.744Z,22.25
2024-03-06T07:42:25.093Z,12.00
2024-03-06T07:44:53.314Z,17.50
2024-03-06T07:47:21.720Z,18.00
2024-03-06T07:49:51.766Z,21.50
2024-03-06T07:52:20.000Z,19.50
2024-03-06T07:54:47.234Z,19.00
2024-03-06T07:57:14.499Z,22.00
2024-03-06T07:59:41.828Z,20.50
2024-03-06T08:02:09.292Z,20.00
2024-03-06T08:04:37.161Z,19.00
2024-03-06T08:07:04.529Z,23.00
2024-03-06T08:09:31.724Z,22.00
2024-03-06T08:11:59.164Z,22.50
2024-03-06T08:14:26.761Z,23.00
2024-03-06T08:16:54.105Z,21.00
2024-03-06T08:19:21.315Z,20.50
2024-03-06T08:21:48.908Z,21.00
2024-03-06T08:24:18.460Z,26.00
2024-03-06T08:26:47.017Z,21.00
2024-03-06T08:29:14.319Z,24.50
2024-03-06T08:31:41.653Z,24.00
2024-03-06T08:34:08.968Z,22.00
2024-03-06T08:36:36.279Z,24.00
2024-03-06T08:39:03.663Z,25.50
2024-03-06T08:41:30.826Z,23.67
2024-03-06T08:43:58.110Z,24.50
2024-03-06T08:46:26.069Z,24.50
2024-03-06T08:48:53.331Z,20.50
2024-03-06T08:51:20.742Z,25.50
2024-03-06T08:53:49.499Z,23.50
2024-03-06T08:56:16.825Z,23.00
2024-03-06T08:58:44.266Z,24.00
2024-03-06T09:01:11.512Z,23.00
2024-03-06T09:03:38.838Z,20.00
2024-03-06T09:06:06.446Z,25.00
2024-03-06T09:08:33.830Z,19.00
2024-03-06T09:11:01.324Z,24.00
2024-03-06T09:13:28.547Z,23.33
2024-03-06T09:15:55.747Z,18.00
2024-03-06T09:18:22.980Z,19.67
2024-03-06T09:20:50.255Z,24.00
2024-03-06T09:23:17.636Z,24.67
2024-03-06T09:25:44.989Z,24.00
2024-03-06T09:28:13.117Z,24.67
2024-03-06T09:30:40.277Z,23.00
2024-03-06T09:33:08.240Z,23.33
2024-03-06T09:35:38.121Z,20.00
2024-03-06T09:38:05.578Z,25.33
2024-03-06T09:40:32.887Z,28.00
2024-03-06T09:43:00.544Z,22.00
2024-03-06T09:45:27.876Z,29.75
2024-03-06T09:47:55.477Z,25.50
2024-03-06T09:50:25.837Z,28.00
2024-03-06T09:52:54.883Z,28.00
2024-03-06T09:55:22.502Z,29.50
2024-03-06T09:57:51.251Z,27.00
2024-03-06T10:00:21.121Z,24.00
2024-03-06T10:03:01.546Z,27.00
2024-03-06T10:05:29.682Z,26.00
2024-03-06T10:07:57.020Z,23.50
2024-03-06T10:10:24.475Z,28.00
2024-03-06T10:12:52.067Z,26.00
2024-03-06T10:15:19.363Z,27.33
2024-03-06T10:17:50.648Z,29.50
2024-03-06T10:20:22.567Z,24.00
2024-03-06T10:22:59.253Z,24.00
2024-03-06T10:25:27.993Z,26.00
2024-03-06T10:28:11.535Z,26.75
2024-03-06T10:30:43.498Z,29.00
2024-03-06T10:33:11.683Z,24.00
2024-03-06T10:35:39.079Z,26.00
2024-03-06T10:38:07.653Z,27.00
2024-03-06T10:40:36.652Z,25.00
2024-03-06T10:43:07.133Z,29.00
2024-03-06T10:45:36.970Z,24.00
2024-03-06T10:48:05.327Z,20.00
2024-03-06T10:50:33.136Z,23.00
2024-03-06T10:53:00.602Z,22.00
2024-03-06T10:55:27.871Z,26.00
2024-03-06T10:57:55.163Z,21.75
2024-03-06T11:00:23.038Z,24.50
2024-03-06T11:02:50.874Z,25.33
2024-03-06T11:05:18.292Z,23.00
2024-03-06T11:07:45.557Z,25.50
2024-03-06T11:10:17.711Z,24.50
2024-03-06T11:12:50.558Z,24.00
2024-03-06T11:15:20.187Z,24.33
2024-03-06T11:17:47.676Z,26.00
2024-03-06T11:20:19.744Z,26.00
2024-03-06T11:23:00.364Z,32.25
2024-03-06T11:25:47.407Z,27.50
2024-03-06T11:28:21.705Z,27.50
2024-03-06T11:30:49.703Z,26.33
2024-03-06T11:33:20.146Z,23.33
2024-03-06T11:36:19.106Z,21.00
2024-03-06T11:38:54.201Z,16.00
2024-03-06T11:41:25.831Z,24.25
2024-03-06T11:43:54.523Z,21.50
2024-03-06T11:46:22.796Z,23.67
2024-03-06T11:48:56.325Z,28.00
2024-03-06T11:51:24.672Z,25.33
2024-03-06T11:53:52.584Z,25.00
2024-03-06T11:56:21.126Z,22.50
2024-03-06T11:58:50.235Z,23.50
2024-03-06T12:01:19.713Z,22.00
2024-03-06T12:03:47.245Z,23.25
2024-03-06T12:06:15.888Z,20.33
2024-03-06T12:08:43.266Z,18.25
2024-03-06T12:11:10.978Z,24.00
2024-03-06T12:13:38.290Z,23.00
2024-03-06T12:16:07.574Z,19.67
2024-03-06T12:18:35.454Z,20.67
2024-03-06T12:21:04.106Z,21.00
2024-03-06T12:23:31.469Z,22.00
2024-03-06T12:26:06.503Z,22.00
2024-03-06T12:28:34.249Z,22.75
2024-03-06T12:31:03.991Z,20.00
2024-03-06T12:33:31.695Z,21.00
2024-03-06T12:36:06.045Z,21.50
2024-03-06T12:38:33.714Z,21.00
2024-03-06T12:41:01.365Z,20.75
2024-03-06T12:43:30.052Z,19.67
2024-03-06T12:46:00.540Z,22.00
2024-03-06T12:48:31.373Z,20.00
2024-03-06T12:51:06.499Z,21.00
2024-03-06T12:53:37.128Z,19.25
2024-03-06T12:56:05.110Z,11.00
2024-03-06T12:58:32.607Z,22.00
2024-03-06T13:01:00.044Z,20.00
2024-03-06T13:03:27.426Z,21.00
2024-03-06T13:05:55.084Z,21.00
2024-03-06T13:08:22.297Z,21.25
2024-03-06T13:10:49.600Z,21.00
2024-03-06T13:13:16.822Z,17.50
2024-03-06T13:15:45.016Z,20.50
2024-03-06T13:18:12.371Z,20.33
2024-03-06T13:20:39.622Z,15.25
2024-03-06T13:23:07.135Z,18.00
2024-03-06T13:25:34.392Z,19.00
2024-03-06T13:28:01.599Z,9.50
2024-03-06T13:30:29.098Z,18.00
2024-03-06T13:32:56.607Z,20.00
2024-03-06T13:35:23.961Z,18.00
2024-03-06T13:37:51.421Z,19.00
2024-03-06T13:40:18.697Z,17.67
2024-03-06T13:42:46.001Z,18.00
2024-03-06T13:45:13.266Z,18.50
2024-03-06T13:47:41.708Z,14.75
2024-03-06T13:50:10.052Z,21.33
2024-03-06T13:52:37.552Z,17.00
2024-03-06T13:55:08.132Z,17.67
2024-03-06T13:57:36.184Z,15.00
2024-03-06T14:00:06.266Z,18.50
2024-03-06T14:02:42.258Z,17.67
2024-03-06T14:05:09.737Z,18.00
2024-03-06T14:07:36.973Z,17.33
2024-03-06T14:10:06.559Z,17.00
2024-03-06T14:12:33.981Z,17.33
2024-03-06T14:15:01.190Z,18.50
2024-03-06T14:17:28.524Z,18.00
2024-03-06T14:19:55.901Z,16.00
2024-03-06T14:22:23.134Z,18.33
2024-03-06T14:24:50.337Z,18.33
2024-03-06T14:27:18.399Z,18.50
2024-03-06T14:29:46.127Z,18.00
2024-03-06T14:32:13.457Z,18.00
2024-03-06T14:34:40.786Z,18.67
2024-03-06T14:37:08.407Z,18.33
2024-03-06T14:39:35.566Z,16.67
2024-03-06T14:42:02.881Z,17.33
2024-03-06T14:44:31.025Z,21.00
2024-03-06T14:46:58.547Z,19.00
2024-03-06T14:49:26.415Z,17.50
2024-03-06T14:51:54.261Z,18.00
2024-03-06T14:54:21.440Z,19.33
2024-03-06T14:56:49.329Z,18.33
2024-03-06T14:59:16.630Z,19.50
2024-03-06T15:01:45.465Z,20.00
2024-03-06T15:04:13.573Z,20.25
2024-03-06T15:06:40.836Z,22.00
2024-03-06T15:09:12.885Z,20.75
2024-03-06T15:11:40.918Z,18.00
2024-03-06T15:14:09.177Z,20.00
2024-03-06T15:16:38.526Z,20.00
2024-03-06T15:19:05.764Z,19.50
2024-03-06T15:21:33.275Z,20.00
2024-03-06T15:24:02.251Z,20.25
2024-03-06T15:26:31.072Z,18.50
2024-03-06T15:28:58.462Z,20.00
2024-03-06T15:31:26.640Z,22.50
2024-03-06T15:33:53.861Z,19.00
2024-03-06T15:36:22.194Z,18.00
2024-03-06T15:38:49.465Z,21.33
2024-03-06T15:41:19.213Z,18.50
2024-03-06T15:43:46.532Z,17.50
2024-03-06T15:46:13.739Z,19.00
2024-03-06T15:48:41.047Z,19.75
2024-03-06T15:51:09.735Z,19.00
2024-03-06T15:53:37.112Z,20.00
2024-03-06T15:56:04.729Z,19.00
2024-03-06T15:58:31.962Z,21.00
2024-03-06T16:01:01.424Z,21.33
2024-03-06T16:03:31.081Z,19.00
2024-03-06T16:06:07.183Z,20.00
2024-03-06T16:08:42.531Z,18.00
2024-03-06T16:11:09.881Z,18.67
2024-03-06T16:13:37.227Z,17.33
2024-03-06T16:16:04.994Z,19.00
2024-03-06T16:18:32.233Z,19.00
2024-03-06T16:21:00.442Z,19.00
2024-03-06T16:23:27.778Z,17.00
2024-03-06T16:25:55.005Z,16.33
2024-03-06T16:28:23.747Z,17.67
2024-03-06T16:30:51.046Z,18.67
2024-03-06T16:33:18.278Z,14.00
2024-03-06T16:35:45.630Z,17.00
2024-03-06T16:38:13.226Z,18.25
2024-03-06T16:40:40.530Z,19.00
2024-03-06T16:43:07.731Z,18.00
2024-03-06T16:45:34.940Z,17.00
2024-03-06T16:48:02.463Z,18.00
2024-03-06T16:50:29.841Z,18.00
2024-03-06T16:52:57.675Z,19.67
2024-03-06T16:55:25.213Z,20.25
2024-03-06T16:57:52.475Z,19.00
2024-03-06T17:00:19.855Z,17.00
2024-03-06T17:02:47.157Z,18.00
2024-03-06T17:05:15.443Z,17.00
2024-03-06T17:07:46.403Z,17.00
2024-03-06T17:10:15.931Z,18.00
2024-03-06T17:12:44.171Z,18.00
2024-03-06T17:15:13.945Z,20.00
2024-03-06T17:17:42.266Z,17.33
2024-03-06T17:20:11.296Z,17.50
2024-03-06T17:22:39.565Z,18.00
2024-03-06T17:25:09.027Z,18.00
2024-03-06T17:27:37.521Z,17.50
2024-03-06T17:30:06.515Z,19.33
2024-03-06T17:32:34.765Z,18.00
2024-03-06T17:35:05.006Z,18.00
2024-03-06T17:37:33.229Z,14.50
2024-03-06T17:40:01.335Z,18.00
2024-03-06T17:42:29.727Z,17.75
2024-03-06T17:44:57.999Z,18.00
2024-03-06T17:47:26.266Z,14.00
2024-03-06T17:49:54.522Z,18.33
2024-03-06T17:52:23.044Z,17.33
2024-03-06T17:54:51.338Z,17.33
2024-03-06T17:57:19.591Z,17.00
2024-03-06T17:59:47.947Z,17.33
2024-03-06T18:02:16.249Z,16.00
2024-03-06T18:04:45.583Z,18.50
2024-03-06T18:07:13.866Z,14.50
2024-03-06T18:09:42.456Z,17.00
2024-03-06T18:12:10.725Z,18.33
2024-03-06T18:14:39.022Z,17.33
2024-03-06T18:17:07.390Z,13.50
2024-03-06T18:19:35.781Z,16.50
2024-03-06T18:22:04.062Z,15.00
2024-03-06T18:24:32.215Z,17.00
2024-03-06T18:27:00.513Z,16.75
2024-03-06T18:29:29.699Z,15.00
2024-03-06T18:31:57.964Z,13.50
2024-03-06T18:34:26.520Z,18.00
2024-03-06T18:36:54.785Z,17.50
2024-03-06T18:39:23.030Z,18.00
2024-03-06T18:41:52.377Z,14.00
2024-03-06T18:44:20.730Z,17.00
2024-03-06T18:46:48.872Z,15.50
2024-03-06T18:49:20.503Z,18.00
2024-03-06T18:51:49.790Z,17.33
2024-03-06T18:54:18.260Z,18.00
2024-03-06T18:56:49.062Z,14.33
2024-03-06T18:59:17.437Z,14.33
2024-03-06T19:01:49.433Z,17.00
2024-03-06T19:04:21.936Z,18.00
2024-03-06T19:06:50.393Z,14.67
2024-03-06T19:09:20.238Z,17.33
2024-03-06T19:11:51.549Z,16.67
2024-03-06T19:14:21.538Z,13.00
2024-03-06T19:16:49.805Z,14.00
2024-03-06T19:19:19.036Z,15.00
2024-03-06T19:21:49.376Z,16.00
2024-03-06T19:24:17.897Z,19.00
2024-03-06T19:26:46.068Z,15.00
2024-03-06T19:29:14.279Z,16.00
2024-03-06T19:31:42.557Z,17.33
2024-03-06T19:34:13.785Z,16.00
2024-03-06T19:36:45.045Z,17.25
2024-03-06T19:39:13.361Z,19.00
2024-03-06T19:41:41.600Z,14.00
2024-03-06T19:44:09.854Z,10.67
2024-03-06T19:46:38.125Z,14.00
2024-03-06T19:49:06.965Z,17.00
2024-03-06T19:51:35.204Z,15.25
2024-03-06T19:54:04.892Z,17.00
2024-03-06T19:56:33.176Z,18.00
2024-03-06T19:59:01.612Z,17.67
2024-03-06T20:01:29.886Z,17.25
2024-03-06T20:03:58.608Z,17.00
2024-03-06T20:06:28.597Z,20.00
2024-03-06T20:08:56.882Z,16.50
2024-03-06T20:11:28.252Z,18.00
2024-03-06T20:13:56.477Z,21.00
2024-03-06T20:16:24.722Z,16.00
2024-03-06T20:18:53.040Z,19.33
2024-03-06T20:21:22.396Z,18.00
2024-03-06T20:23:51.175Z,19.00
2024-03-06T20:26:19.837Z,18.50
2024-03-06T20:28:51.260Z,16.75
2024-03-06T20:31:19.421Z,19.33
2024-03-06T20:33:47.638Z,19.00
2024-03-06T20:36:15.896Z,19.00
2024-03-06T20:38:44.510Z,19.75
2024-03-06T20:41:13.963Z,18.00
2024-03-06T20:43:42.281Z,19.50
2024-03-06T20:46:10.525Z,22.00
2024-03-06T20:48:38.768Z,19.00
2024-03-06T20:51:10.531Z,20.00
2024-03-06T20:53:39.285Z,21.00
2024-03-06T20:56:09.050Z,18.50
2024-03-06T20:58:37.527Z,21.00
2024-03-06T21:01:06.428Z,22.00
2024-03-06T21:03:36.234Z,20.25
2024-03-06T21:06:05.242Z,19.00
2024-03-06T21:08:33.819Z,19.00
2024-03-06T21:11:02.270Z,18.33
2024-03-06T21:13:30.930Z,20.67
2024-03-06T21:15:59.091Z,21.00
2024-03-06T21:18:27.405Z,21.00
2024-03-06T21:20:55.702Z,18.00
2024-03-06T21:23:24.988Z,20.33
2024-03-06T21:25:53.490Z,20.00
2024-03-06T21:28:25.698Z,18.25
2024-03-06T21:30:54.325Z,17.00
2024-03-06T21:33:22.546Z,18.00
2024-03-06T21:35:50.962Z,17.50
2024-03-06T21:38:19.448Z,20.00
2024-03-06T21:40:47.689Z,18.33
2024-03-06T21:43:16.661Z,18.67
2024-03-06T21:45:45.035Z,22.00
2024-03-06T21:48:13.440Z,21.33
2024-03-06T21:50:41.833Z,22.00
2024-03-06T21:53:11.433Z,22.00
2024-03-06T21:55:39.727Z,20.33
2024-03-06T21:58:07.936Z,21.00
2024-03-06T22:00:36.110Z,21.00
2024-03-06T22:03:06.240Z,21.33
2024-03-06T22:05:34.646Z,20.00
2024-03-06T22:08:03.029Z,19.00
2024-03-06T22:10:31.231Z,19.00
2024-03-06T22:12:59.576Z,20.00
2024-03-06T22:15:27.777Z,22.00
2024-03-06T22:17:56.017Z,22.00
2024-03-06T22:20:24.185Z,22.00
2024-03-06T22:22:52.582Z,23.00
2024-03-06T22:25:20.871Z,26.00
2024-03-06T22:27:49.508Z,24.00
2024-03-06T22:30:17.895Z,20.33
2024-03-06T22:32:47.015Z,21.00
2024-03-06T22:35:15.544Z,19.25
2024-03-06T22:37:43.796Z,20.00
2024-03-06T22:40:12.785Z,20.50
2024-03-06T22:42:41.411Z,22.67
2024-03-06T22:45:10.012Z,19.00
2024-03-06T22:47:38.303Z,22.00
2024-03-06T22:50:06.918Z,21.25
2024-03-06T22:52:35.082Z,22.00
2024-03-06T22:55:06.598Z,22.00
2024-03-06T22:57:36.040Z,23.00
2024-03-06T23:00:08.754Z,21.00
2024-03-06T23:02:36.991Z,20.00
2024-03-06T23:05:08.797Z,24.00
2024-03-06T23:07:38.099Z,23.00
2024-03-06T23:10:06.625Z,20.50
2024-03-06T23:12:34.873Z,21.33
2024-03-06T23:15:04.904Z,22.00
2024-03-06T23:17:33.280Z,24.00
2024-03-06T23:20:01.602Z,22.33
2024-03-06T23:22:29.865Z,22.00
2024-03-06T23:24:58.531Z,21.67
2024-03-06T23:27:27.000Z,22.00
2024-03-06T23:29:55.274Z,23.00
2024-03-06T23:32:24.557Z,22.25
2024-03-06T23:34:52.925Z,21.00
2024-03-06T23:37:21.111Z,20.00
2024-03-06T23:39:49.219Z,20.75
2024-03-06T23:42:18.062Z,19.50
2024-03-06T23:44:46.395Z,21.00
2024-03-06T23:47:16.537Z,24.00
2024-03-06T23:49:44.784Z,23.00
2024-03-06T23:52:16.874Z,22.50
2024-03-06T23:54:45.576Z,23.33
2024-03-06T23:57:13.875Z,24.00
2024-03-06T23:59:44.603Z,23.33
